sensor_id;sensor_type;location;lat;lon;timestamp;temperature;humidity
22379;DHT22;11357;49.990;7.370;2023-04-03T00:01:28;6.30;77.20
22379;DHT22;11357;49.990;7.370;2023-04-03T00:03:54;6.30;77.10
22379;DHT22;11357;49.990;7.370;2023-04-03T00:06:21;6.30;77.10
22379;DHT22;11357;49.990;7.370;2023-04-03T00:08:47;6.30;77.10
22379;DHT22;11357;49.990;7.370;2023-04-03T00:11:12;6.30;77.10
22379;DHT22;11357;49.990;7.370;2023-04-03T00:13:39;6.30;77.10
22379;DHT22;11357;49.990;7.370;2023-04-03T00:16:05;6.30;77.10
22379;DHT22;11357;49.990;7.370;2023-04-03T00:18:31;6.30;77.10
22379;DHT22;11357;49.990;7.370;2023-04-03T00:20:57;6.30;77.00
22379;DHT22;11357;49.990;7.370;2023-04-03T00:23:23;6.30;77.10
22379;DHT22;11357;49.990;7.370;2023-04-03T00:25:49;6.30;77.10
22379;DHT22;11357;49.990;7.370;2023-04-03T00:28:15;6.30;77.10
22379;DHT22;11357;49.990;7.370;2023-04-03T00:30:41;6.30;77.10
22379;DHT22;11357;49.990;7.370;2023-04-03T00:33:07;6.30;77.10
22379;DHT22;11357;49.990;7.370;2023-04-03T00:35:34;6.30;77.10
22379;DHT22;11357;49.990;7.370;2023-04-03T00:38:00;6.30;77.10
22379;DHT22;11357;49.990;7.370;2023-04-03T00:40:27;6.30;77.10
22379;DHT22;11357;49.990;7.370;2023-04-03T00:42:57;6.30;77.00
22379;DHT22;11357;49.990;7.370;2023-04-03T00:45:38;6.30;77.00
22379;DHT22;11357;49.990;7.370;2023-04-03T00:48:07;6.30;77.00
22379;DHT22;11357;49.990;7.370;2023-04-03T00:50:36;6.40;77.00
22379;DHT22;11357;49.990;7.370;2023-04-03T00:53:04;6.40;76.90
22379;DHT22;11357;49.990;7.370;2023-04-03T00:55:30;6.40;77.60
22379;DHT22;11357;49.990;7.370;2023-04-03T00:57:57;6.40;76.90
22379;DHT22;11357;49.990;7.370;2023-04-03T01:00:24;6.40;77.00
22379;DHT22;11357;49.990;7.370;2023-04-03T01:02:51;6.40;77.00
22379;DHT22;11357;49.990;7.370;2023-04-03T01:05:17;6.40;76.90
22379;DHT22;11357;49.990;7.370;2023-04-03T01:07:45;6.40;76.90
22379;DHT22;11357;49.990;7.370;2023-04-03T01:10:14;6.40;76.90
22379;DHT22;11357;49.990;7.370;2023-04-03T01:12:43;6.40;76.90
22379;DHT22;11357;49.990;7.370;2023-04-03T01:15:12;6.40;76.90
22379;DHT22;11357;49.990;7.370;2023-04-03T01:17:52;6.40;76.90
22379;DHT22;11357;49.990;7.370;2023-04-03T01:25:38;6.30;76.70
22379;DHT22;11357;49.990;7.370;2023-04-03T01:28:06;6.30;76.50
22379;DHT22;11357;49.990;7.370;2023-04-03T01:30:53;6.30;76.70
22379;DHT22;11357;49.990;7.370;2023-04-03T01:33:21;6.30;76.60
22379;DHT22;11357;49.990;7.370;2023-04-03T01:35:46;6.30;76.60
22379;DHT22;11357;49.990;7.370;2023-04-03T01:38:12;6.30;76.70
22379;DHT22;11357;49.990;7.370;2023-04-03T01:40:37;6.30;76.70
22379;DHT22;11357;49.990;7.370;2023-04-03T01:43:03;6.30;76.70
22379;DHT22;11357;49.990;7.370;2023-04-03T01:45:29;6.20;76.70
22379;DHT22;11357;49.990;7.370;2023-04-03T01:47:54;6.20;76.70
22379;DHT22;11357;49.990;7.370;2023-04-03T01:50:20;6.20;76.70
22379;DHT22;11357;49.990;7.370;2023-04-03T01:52:46;6.20;76.80
22379;DHT22;11357;49.990;7.370;2023-04-03T01:55:11;6.10;76.90
22379;DHT22;11357;49.990;7.370;2023-04-03T01:57:37;6.10;76.80
22379;DHT22;11357;49.990;7.370;2023-04-03T02:00:03;6.10;76.80
22379;DHT22;11357;49.990;7.370;2023-04-03T02:02:29;6.10;76.80
22379;DHT22;11357;49.990;7.370;2023-04-03T02:04:55;6.10;76.80
22379;DHT22;11357;49.990;7.370;2023-04-03T02:07:20;6.10;76.90
22379;DHT22;11357;49.990;7.370;2023-04-03T02:09:46;6.10;76.90
22379;DHT22;11357;49.990;7.370;2023-04-03T02:12:12;6.00;77.00
22379;DHT22;11357;49.990;7.370;2023-04-03T02:14:38;6.10;77.00
22379;DHT22;11357;49.990;7.370;2023-04-03T02:17:03;6.10;77.00
22379;DHT22;11357;49.990;7.370;2023-04-03T02:19:36;6.10;77.00
22379;DHT22;11357;49.990;7.370;2023-04-03T02:22:03;6.10;77.00
22379;DHT22;11357;49.990;7.370;2023-04-03T02:24:28;6.10;77.00
22379;DHT22;11357;49.990;7.370;2023-04-03T02:26:54;6.10;77.00
22379;DHT22;11357;49.990;7.370;2023-04-03T02:29:20;6.00;77.00
22379;DHT22;11357;49.990;7.370;2023-04-03T02:31:45;6.00;76.90
22379;DHT22;11357;49.990;7.370;2023-04-03T02:34:11;6.00;76.90
22379;DHT22;11357;49.990;7.370;2023-04-03T02:36:37;6.00;77.00
22379;DHT22;11357;49.990;7.370;2023-04-03T02:39:03;6.00;77.10
22379;DHT22;11357;49.990;7.370;2023-04-03T02:41:28;5.90;77.10
22379;DHT22;11357;49.990;7.370;2023-04-03T02:44:00;6.00;77.10
22379;DHT22;11357;49.990;7.370;2023-04-03T02:46:26;6.00;77.10
22379;DHT22;11357;49.990;7.370;2023-04-03T02:48:52;6.10;77.10
22379;DHT22;11357;49.990;7.370;2023-04-03T02:51:17;6.00;77.00
22379;DHT22;11357;49.990;7.370;2023-04-03T02:53:43;6.10;77.00
22379;DHT22;11357;49.990;7.370;2023-04-03T02:56:09;6.00;77.00
22379;DHT22;11357;49.990;7.370;2023-04-03T02:58:35;6.10;77.00
22379;DHT22;11357;49.990;7.370;2023-04-03T03:01:01;6.00;77.00
22379;DHT22;11357;49.990;7.370;2023-04-03T03:03:27;6.00;76.90
22379;DHT22;11357;49.990;7.370;2023-04-03T03:08:32;6.00;77.00
22379;DHT22;11357;49.990;7.370;2023-04-03T03:10:57;6.00;77.00
22379;DHT22;11357;49.990;7.370;2023-04-03T03:13:23;6.00;77.00
22379;DHT22;11357;49.990;7.370;2023-04-03T03:15:49;6.00;76.90
22379;DHT22;11357;49.990;7.370;2023-04-03T03:18:15;6.10;76.80
22379;DHT22;11357;49.990;7.370;2023-04-03T03:20:40;6.10;76.70
22379;DHT22;11357;49.990;7.370;2023-04-03T03:23:06;6.10;76.70
22379;DHT22;11357;49.990;7.370;2023-04-03T03:25:32;6.10;76.60
22379;DHT22;11357;49.990;7.370;2023-04-03T03:27:57;6.10;76.60
22379;DHT22;11357;49.990;7.370;2023-04-03T03:30:23;6.10;76.60
22379;DHT22;11357;49.990;7.370;2023-04-03T03:32:49;6.10;76.70
22379;DHT22;11357;49.990;7.370;2023-04-03T03:35:14;6.10;76.60
22379;DHT22;11357;49.990;7.370;2023-04-03T03:37:40;6.10;76.50
22379;DHT22;11357;49.990;7.370;2023-04-03T03:40:06;6.20;76.60
22379;DHT22;11357;49.990;7.370;2023-04-03T03:42:32;6.10;76.40
22379;DHT22;11357;49.990;7.370;2023-04-03T03:44:58;6.10;76.50
22379;DHT22;11357;49.990;7.370;2023-04-03T03:47:23;6.10;76.60
22379;DHT22;11357;49.990;7.370;2023-04-03T03:49:49;6.10;76.60
22379;DHT22;11357;49.990;7.370;2023-04-03T03:52:15;6.10;76.50
22379;DHT22;11357;49.990;7.370;2023-04-03T03:54:40;6.10;76.60
22379;DHT22;11357;49.990;7.370;2023-04-03T03:57:06;6.10;76.60
22379;DHT22;11357;49.990;7.370;2023-04-03T03:59:32;6.10;76.70
22379;DHT22;11357;49.990;7.370;2023-04-03T04:01:57;6.10;76.70
22379;DHT22;11357;49.990;7.370;2023-04-03T04:04:23;6.10;76.70
22379;DHT22;11357;49.990;7.370;2023-04-03T04:06:49;6.00;76.80
22379;DHT22;11357;49.990;7.370;2023-04-03T04:09:14;6.10;76.90
22379;DHT22;11357;49.990;7.370;2023-04-03T04:11:40;6.10;77.50
22379;DHT22;11357;49.990;7.370;2023-04-03T04:14:06;6.10;76.70
22379;DHT22;11357;49.990;7.370;2023-04-03T04:16:32;6.00;76.80
22379;DHT22;11357;49.990;7.370;2023-04-03T04:18:58;6.00;76.80
22379;DHT22;11357;49.990;7.370;2023-04-03T04:21:24;6.00;76.80
22379;DHT22;11357;49.990;7.370;2023-04-03T04:23:49;5.90;76.80
22379;DHT22;11357;49.990;7.370;2023-04-03T04:26:15;6.00;77.00
22379;DHT22;11357;49.990;7.370;2023-04-03T04:28:40;5.90;77.00
22379;DHT22;11357;49.990;7.370;2023-04-03T04:31:06;5.90;77.10
22379;DHT22;11357;49.990;7.370;2023-04-03T04:33:32;5.90;77.10
22379;DHT22;11357;49.990;7.370;2023-04-03T04:35:57;5.90;77.20
22379;DHT22;11357;49.990;7.370;2023-04-03T04:38:23;5.80;77.20
22379;DHT22;11357;49.990;7.370;2023-04-03T04:40:49;5.80;77.30
22379;DHT22;11357;49.990;7.370;2023-04-03T04:43:15;5.80;77.50
22379;DHT22;11357;49.990;7.370;2023-04-03T04:45:41;5.80;77.60
22379;DHT22;11357;49.990;7.370;2023-04-03T04:48:07;5.70;77.70
22379;DHT22;11357;49.990;7.370;2023-04-03T04:50:33;5.70;77.80
22379;DHT22;11357;49.990;7.370;2023-04-03T04:52:58;5.70;77.90
22379;DHT22;11357;49.990;7.370;2023-04-03T04:55:24;5.70;78.10
22379;DHT22;11357;49.990;7.370;2023-04-03T04:57:50;5.70;78.20
22379;DHT22;11357;49.990;7.370;2023-04-03T05:00:16;5.70;78.20
22379;DHT22;11357;49.990;7.370;2023-04-03T05:02:42;5.70;78.20
22379;DHT22;11357;49.990;7.370;2023-04-03T05:05:08;5.70;78.30
22379;DHT22;11357;49.990;7.370;2023-04-03T05:07:33;5.70;78.30
22379;DHT22;11357;49.990;7.370;2023-04-03T05:10:01;5.70;79.00
22379;DHT22;11357;49.990;7.370;2023-04-03T05:12:28;5.70;78.30
22379;DHT22;11357;49.990;7.370;2023-04-03T05:14:54;5.70;78.40
22379;DHT22;11357;49.990;7.370;2023-04-03T05:17:19;5.60;78.40
22379;DHT22;11357;49.990;7.370;2023-04-03T05:19:45;5.60;78.50
22379;DHT22;11357;49.990;7.370;2023-04-03T05:22:11;5.60;78.60
22379;DHT22;11357;49.990;7.370;2023-04-03T05:24:36;5.60;78.60
22379;DHT22;11357;49.990;7.370;2023-04-03T05:27:02;5.50;78.50
22379;DHT22;11357;49.990;7.370;2023-04-03T05:29:28;5.50;78.60
22379;DHT22;11357;49.990;7.370;2023-04-03T05:31:54;5.50;78.70
22379;DHT22;11357;49.990;7.370;2023-04-03T05:34:19;5.50;78.80
22379;DHT22;11357;49.990;7.370;2023-04-03T05:36:45;5.40;78.90
22379;DHT22;11357;49.990;7.370;2023-04-03T05:39:11;5.40;79.00
22379;DHT22;11357;49.990;7.370;2023-04-03T05:41:36;5.40;79.10
22379;DHT22;11357;49.990;7.370;2023-04-03T05:44:02;5.40;79.20
22379;DHT22;11357;49.990;7.370;2023-04-03T05:46:27;5.40;79.90
22379;DHT22;11357;49.990;7.370;2023-04-03T05:48:53;5.40;79.30
22379;DHT22;11357;49.990;7.370;2023-04-03T05:51:23;5.30;79.30
22379;DHT22;11357;49.990;7.370;2023-04-03T05:53:50;5.30;79.50
22379;DHT22;11357;49.990;7.370;2023-04-03T05:56:17;5.40;79.60
22379;DHT22;11357;49.990;7.370;2023-04-03T05:58:43;5.30;79.70
22379;DHT22;11357;49.990;7.370;2023-04-03T06:01:08;5.30;79.90
22379;DHT22;11357;49.990;7.370;2023-04-03T06:03:34;5.30;80.20
22379;DHT22;11357;49.990;7.370;2023-04-03T06:06:03;5.30;80.30
22379;DHT22;11357;49.990;7.370;2023-04-03T06:08:29;5.40;80.40
22379;DHT22;11357;49.990;7.370;2023-04-03T06:10:54;5.50;80.40
22379;DHT22;11357;49.990;7.370;2023-04-03T06:13:21;5.60;80.40
22379;DHT22;11357;49.990;7.370;2023-04-03T06:15:47;5.70;80.40
22379;DHT22;11357;49.990;7.370;2023-04-03T06:18:13;5.70;80.30
22379;DHT22;11357;49.990;7.370;2023-04-03T06:20:39;5.80;80.40
22379;DHT22;11357;49.990;7.370;2023-04-03T06:23:05;5.90;80.40
22379;DHT22;11357;49.990;7.370;2023-04-03T06:25:31;6.00;80.40
22379;DHT22;11357;49.990;7.370;2023-04-03T06:27:57;6.00;80.30
22379;DHT22;11357;49.990;7.370;2023-04-03T06:30:22;6.00;80.10
22379;DHT22;11357;49.990;7.370;2023-04-03T06:32:48;6.00;80.20
22379;DHT22;11357;49.990;7.370;2023-04-03T06:35:14;6.20;80.20
22379;DHT22;11357;49.990;7.370;2023-04-03T06:37:40;6.30;80.00
22379;DHT22;11357;49.990;7.370;2023-04-03T06:40:06;6.40;79.60
22379;DHT22;11357;49.990;7.370;2023-04-03T06:42:32;6.50;79.30
22379;DHT22;11357;49.990;7.370;2023-04-03T06:44:58;6.60;79.20
22379;DHT22;11357;49.990;7.370;2023-04-03T06:47:23;6.80;78.90
22379;DHT22;11357;49.990;7.370;2023-04-03T06:49:49;7.00;78.70
22379;DHT22;11357;49.990;7.370;2023-04-03T06:52:15;7.20;78.10
22379;DHT22;11357;49.990;7.370;2023-04-03T06:54:41;7.30;77.50
22379;DHT22;11357;49.990;7.370;2023-04-03T06:57:07;7.40;77.10
22379;DHT22;11357;49.990;7.370;2023-04-03T06:59:33;7.50;76.60
22379;DHT22;11357;49.990;7.370;2023-04-03T07:01:59;7.60;76.20
22379;DHT22;11357;49.990;7.370;2023-04-03T07:04:25;7.70;75.80
22379;DHT22;11357;49.990;7.370;2023-04-03T07:06:51;7.80;75.30
22379;DHT22;11357;49.990;7.370;2023-04-03T07:09:18;8.00;75.00
22379;DHT22;11357;49.990;7.370;2023-04-03T07:11:44;8.10;74.40
22379;DHT22;11357;49.990;7.370;2023-04-03T07:14:09;8.20;73.60
22379;DHT22;11357;49.990;7.370;2023-04-03T07:16:35;8.30;73.20
22379;DHT22;11357;49.990;7.370;2023-04-03T07:19:02;8.40;72.80
22379;DHT22;11357;49.990;7.370;2023-04-03T07:21:28;8.40;71.70
22379;DHT22;11357;49.990;7.370;2023-04-03T07:23:55;8.30;71.40
22379;DHT22;11357;49.990;7.370;2023-04-03T07:26:22;8.50;71.70
22379;DHT22;11357;49.990;7.370;2023-04-03T07:28:48;8.60;70.60
22379;DHT22;11357;49.990;7.370;2023-04-03T07:31:14;8.60;70.00
22379;DHT22;11357;49.990;7.370;2023-04-03T07:33:41;8.50;69.70
22379;DHT22;11357;49.990;7.370;2023-04-03T07:36:09;8.50;69.80
22379;DHT22;11357;49.990;7.370;2023-04-03T07:38:35;8.60;70.00
22379;DHT22;11357;49.990;7.370;2023-04-03T07:41:02;8.80;69.90
22379;DHT22;11357;49.990;7.370;2023-04-03T07:43:28;9.00;69.40
22379;DHT22;11357;49.990;7.370;2023-04-03T07:45:53;9.20;68.90
22379;DHT22;11357;49.990;7.370;2023-04-03T07:48:24;9.20;67.90
22379;DHT22;11357;49.990;7.370;2023-04-03T07:50:50;9.20;67.30
22379;DHT22;11357;49.990;7.370;2023-04-03T07:53:16;9.20;67.10
22379;DHT22;11357;49.990;7.370;2023-04-03T07:55:43;9.30;66.80
22379;DHT22;11357;49.990;7.370;2023-04-03T07:58:12;9.50;67.10
22379;DHT22;11357;49.990;7.370;2023-04-03T08:00:40;9.80;66.80
22379;DHT22;11357;49.990;7.370;2023-04-03T08:03:07;10.20;66.50
22379;DHT22;11357;49.990;7.370;2023-04-03T08:05:44;10.40;65.70
22379;DHT22;11357;49.990;7.370;2023-04-03T08:08:12;10.60;64.90
22379;DHT22;11357;49.990;7.370;2023-04-03T08:10:37;10.90;64.70
22379;DHT22;11357;49.990;7.370;2023-04-03T08:13:03;11.30;64.30
22379;DHT22;11357;49.990;7.370;2023-04-03T08:15:30;11.60;63.80
22379;DHT22;11357;49.990;7.370;2023-04-03T08:17:56;11.90;62.80
22379;DHT22;11357;49.990;7.370;2023-04-03T08:20:22;12.20;62.40
22379;DHT22;11357;49.990;7.370;2023-04-03T08:22:47;12.20;60.80
22379;DHT22;11357;49.990;7.370;2023-04-03T08:25:13;12.00;60.10
22379;DHT22;11357;49.990;7.370;2023-04-03T08:27:39;11.90;60.60
22379;DHT22;11357;49.990;7.370;2023-04-03T08:30:06;11.90;60.60
22379;DHT22;11357;49.990;7.370;2023-04-03T08:32:33;12.10;60.70
22379;DHT22;11357;49.990;7.370;2023-04-03T08:35:00;12.40;60.40
22379;DHT22;11357;49.990;7.370;2023-04-03T08:37:25;12.80;60.20
22379;DHT22;11357;49.990;7.370;2023-04-03T08:39:52;13.10;59.20
22379;DHT22;11357;49.990;7.370;2023-04-03T08:42:51;13.30;58.60
22379;DHT22;11357;49.990;7.370;2023-04-03T08:45:22;13.40;58.10
22379;DHT22;11357;49.990;7.370;2023-04-03T08:50:39;13.30;55.90
22379;DHT22;11357;49.990;7.370;2023-04-03T08:53:09;13.20;56.10
22379;DHT22;11357;49.990;7.370;2023-04-03T08:55:44;13.20;56.30
22379;DHT22;11357;49.990;7.370;2023-04-03T08:58:18;13.20;56.00
22379;DHT22;11357;49.990;7.370;2023-04-03T09:01:14;13.20;56.10
22379;DHT22;11357;49.990;7.370;2023-04-03T09:03:42;13.20;56.00
22379;DHT22;11357;49.990;7.370;2023-04-03T09:06:30;13.60;56.20
22379;DHT22;11357;49.990;7.370;2023-04-03T09:09:33;13.80;54.30
22379;DHT22;11357;49.990;7.370;2023-04-03T09:12:21;13.90;54.50
22379;DHT22;11357;49.990;7.370;2023-04-03T09:22:45;13.80;53.30
22379;DHT22;11357;49.990;7.370;2023-04-03T09:25:33;13.50;54.70
22379;DHT22;11357;49.990;7.370;2023-04-03T09:28:01;14.00;54.70
22379;DHT22;11357;49.990;7.370;2023-04-03T09:30:28;15.00;53.90
22379;DHT22;11357;49.990;7.370;2023-04-03T09:32:56;15.70;52.70
22379;DHT22;11357;49.990;7.370;2023-04-03T09:35:31;16.20;51.20
22379;DHT22;11357;49.990;7.370;2023-04-03T09:40:44;17.00;49.80
22379;DHT22;11357;49.990;7.370;2023-04-03T09:45:43;16.70;45.70
22379;DHT22;11357;49.990;7.370;2023-04-03T09:50:59;16.00;47.00
22379;DHT22;11357;49.990;7.370;2023-04-03T09:53:45;16.10;47.40
22379;DHT22;11357;49.990;7.370;2023-04-03T10:01:41;17.60;45.40
22379;DHT22;11357;49.990;7.370;2023-04-03T10:06:43;17.40;44.90
22379;DHT22;11357;49.990;7.370;2023-04-03T10:09:30;17.30;44.70
22379;DHT22;11357;49.990;7.370;2023-04-03T10:12:01;16.90;43.50
22379;DHT22;11357;49.990;7.370;2023-04-03T10:14:31;16.70;44.50
22379;DHT22;11357;49.990;7.370;2023-04-03T10:19:43;17.60;45.10
22379;DHT22;11357;49.990;7.370;2023-04-03T10:32:58;16.40;44.80
22379;DHT22;11357;49.990;7.370;2023-04-03T10:38:50;16.00;45.20
22379;DHT22;11357;49.990;7.370;2023-04-03T10:44:36;15.20;46.70
22379;DHT22;11357;49.990;7.370;2023-04-03T11:34:47;17.50;42.40
22379;DHT22;11357;49.990;7.370;2023-04-03T11:37:25;17.40;41.10
22379;DHT22;11357;49.990;7.370;2023-04-03T11:40:02;17.80;41.00
22379;DHT22;11357;49.990;7.370;2023-04-03T11:42:49;18.00;39.90
22379;DHT22;11357;49.990;7.370;2023-04-03T11:51:44;18.90;39.10
22379;DHT22;11357;49.990;7.370;2023-04-03T11:54:36;18.70;39.80
22379;DHT22;11357;49.990;7.370;2023-04-03T12:13:42;18.40;38.50
22379;DHT22;11357;49.990;7.370;2023-04-03T12:26:51;18.10;37.70
22379;DHT22;11357;49.990;7.370;2023-04-03T12:40:57;16.30;41.40
22379;DHT22;11357;49.990;7.370;2023-04-03T12:46:38;18.30;39.50
22379;DHT22;11357;49.990;7.370;2023-04-03T12:49:22;17.70;39.30
22379;DHT22;11357;49.990;7.370;2023-04-03T12:51:50;16.80;39.90
22379;DHT22;11357;49.990;7.370;2023-04-03T12:54:21;16.40;41.40
22379;DHT22;11357;49.990;7.370;2023-04-03T12:56:48;15.70;41.20
22379;DHT22;11357;49.990;7.370;2023-04-03T12:59:15;14.90;42.20
22379;DHT22;11357;49.990;7.370;2023-04-03T13:01:42;14.20;43.20
22379;DHT22;11357;49.990;7.370;2023-04-03T13:04:10;13.80;44.10
22379;DHT22;11357;49.990;7.370;2023-04-03T13:06:40;13.70;44.90
22379;DHT22;11357;49.990;7.370;2023-04-03T13:09:30;14.00;45.10
22379;DHT22;11357;49.990;7.370;2023-04-03T13:12:22;14.90;44.50
22379;DHT22;11357;49.990;7.370;2023-04-03T13:14:57;15.70;42.50
22379;DHT22;11357;49.990;7.370;2023-04-03T13:17:25;16.30;41.00
22379;DHT22;11357;49.990;7.370;2023-04-03T13:19:51;15.90;40.30
22379;DHT22;11357;49.990;7.370;2023-04-03T13:22:27;15.30;41.20
22379;DHT22;11357;49.990;7.370;2023-04-03T13:24:58;14.70;42.00
22379;DHT22;11357;49.990;7.370;2023-04-03T13:27:25;14.40;43.00
22379;DHT22;11357;49.990;7.370;2023-04-03T13:29:53;14.20;43.90
22379;DHT22;11357;49.990;7.370;2023-04-03T13:32:24;14.10;43.80
22379;DHT22;11357;49.990;7.370;2023-04-03T13:34:51;14.80;43.60
22379;DHT22;11357;49.990;7.370;2023-04-03T13:37:30;14.90;43.40
22379;DHT22;11357;49.990;7.370;2023-04-03T13:40:16;14.50;43.30
22379;DHT22;11357;49.990;7.370;2023-04-03T13:42:42;14.20;43.70
22379;DHT22;11357;49.990;7.370;2023-04-03T13:45:24;14.00;43.60
22379;DHT22;11357;49.990;7.370;2023-04-03T13:47:53;13.60;43.80
22379;DHT22;11357;49.990;7.370;2023-04-03T13:50:25;13.30;43.70
22379;DHT22;11357;49.990;7.370;2023-04-03T13:55:24;14.60;44.20
22379;DHT22;11357;49.990;7.370;2023-04-03T14:03:07;17.10;40.40
22379;DHT22;11357;49.990;7.370;2023-04-03T14:05:37;17.00;39.90
22379;DHT22;11357;49.990;7.370;2023-04-03T14:08:03;16.70;39.50
22379;DHT22;11357;49.990;7.370;2023-04-03T14:10:29;16.10;39.70
22379;DHT22;11357;49.990;7.370;2023-04-03T14:12:55;15.90;40.40
22379;DHT22;11357;49.990;7.370;2023-04-03T14:15:26;16.00;40.10
22379;DHT22;11357;49.990;7.370;2023-04-03T14:17:53;16.00;40.30
22379;DHT22;11357;49.990;7.370;2023-04-03T14:20:21;16.10;40.40
22379;DHT22;11357;49.990;7.370;2023-04-03T14:22:48;16.40;40.40
22379;DHT22;11357;49.990;7.370;2023-04-03T14:25:15;16.40;39.80
22379;DHT22;11357;49.990;7.370;2023-04-03T14:27:44;16.10;39.30
22379;DHT22;11357;49.990;7.370;2023-04-03T14:30:23;16.10;39.20
22379;DHT22;11357;49.990;7.370;2023-04-03T14:32:50;15.90;38.80
22379;DHT22;11357;49.990;7.370;2023-04-03T14:35:17;15.90;39.00
22379;DHT22;11357;49.990;7.370;2023-04-03T14:37:45;15.90;39.40
22379;DHT22;11357;49.990;7.370;2023-04-03T14:40:24;15.90;39.30
22379;DHT22;11357;49.990;7.370;2023-04-03T14:42:51;15.40;39.40
22379;DHT22;11357;49.990;7.370;2023-04-03T14:45:17;15.10;39.70
22379;DHT22;11357;49.990;7.370;2023-04-03T14:47:54;15.10;40.30
22379;DHT22;11357;49.990;7.370;2023-04-03T14:50:26;15.10;39.60
22379;DHT22;11357;49.990;7.370;2023-04-03T14:52:56;14.90;39.50
22379;DHT22;11357;49.990;7.370;2023-04-03T14:55:23;14.90;39.80
22379;DHT22;11357;49.990;7.370;2023-04-03T14:57:49;14.80;39.40
22379;DHT22;11357;49.990;7.370;2023-04-03T15:00:18;14.80;39.60
22379;DHT22;11357;49.990;7.370;2023-04-03T15:02:44;14.60;39.80
22379;DHT22;11357;49.990;7.370;2023-04-03T15:05:11;14.30;39.90
22379;DHT22;11357;49.990;7.370;2023-04-03T15:07:43;14.20;40.60
22379;DHT22;11357;49.990;7.370;2023-04-03T15:10:30;14.40;40.70
22379;DHT22;11357;49.990;7.370;2023-04-03T15:12:57;14.30;40.70
22379;DHT22;11357;49.990;7.370;2023-04-03T15:15:23;14.40;40.90
22379;DHT22;11357;49.990;7.370;2023-04-03T15:17:54;14.50;40.50
22379;DHT22;11357;49.990;7.370;2023-04-03T15:20:24;14.60;40.10
22379;DHT22;11357;49.990;7.370;2023-04-03T15:22:50;14.40;38.50
22379;DHT22;11357;49.990;7.370;2023-04-03T15:25:16;14.20;38.90
22379;DHT22;11357;49.990;7.370;2023-04-03T15:27:43;14.10;39.50
22379;DHT22;11357;49.990;7.370;2023-04-03T15:30:14;14.10;40.10
22379;DHT22;11357;49.990;7.370;2023-04-03T15:32:40;14.10;39.80
22379;DHT22;11357;49.990;7.370;2023-04-03T15:35:06;14.00;39.30
22379;DHT22;11357;49.990;7.370;2023-04-03T15:37:32;14.00;39.60
22379;DHT22;11357;49.990;7.370;2023-04-03T15:39:58;14.10;40.00
22379;DHT22;11357;49.990;7.370;2023-04-03T15:42:24;14.00;39.30
22379;DHT22;11357;49.990;7.370;2023-04-03T15:44:50;13.80;39.20
22379;DHT22;11357;49.990;7.370;2023-04-03T15:47:16;13.60;39.30
22379;DHT22;11357;49.990;7.370;2023-04-03T15:49:42;13.30;40.00
22379;DHT22;11357;49.990;7.370;2023-04-03T15:52:08;13.20;41.00
22379;DHT22;11357;49.990;7.370;2023-04-03T15:54:33;13.20;40.80
22379;DHT22;11357;49.990;7.370;2023-04-03T15:56:59;13.10;40.80
22379;DHT22;11357;49.990;7.370;2023-04-03T15:59:25;13.00;40.90
22379;DHT22;11357;49.990;7.370;2023-04-03T16:01:52;13.00;41.20
22379;DHT22;11357;49.990;7.370;2023-04-03T16:04:18;13.00;41.30
22379;DHT22;11357;49.990;7.370;2023-04-03T16:06:46;13.10;40.90
22379;DHT22;11357;49.990;7.370;2023-04-03T16:09:12;12.90;40.70
22379;DHT22;11357;49.990;7.370;2023-04-03T16:11:38;12.70;40.70
22379;DHT22;11357;49.990;7.370;2023-04-03T16:14:06;12.70;40.60
22379;DHT22;11357;49.990;7.370;2023-04-03T16:16:32;12.60;40.60
22379;DHT22;11357;49.990;7.370;2023-04-03T16:18:58;12.50;40.50
22379;DHT22;11357;49.990;7.370;2023-04-03T16:21:24;12.30;40.60
22379;DHT22;11357;49.990;7.370;2023-04-03T16:23:50;12.20;41.00
22379;DHT22;11357;49.990;7.370;2023-04-03T16:26:15;12.10;41.40
22379;DHT22;11357;49.990;7.370;2023-04-03T16:28:43;12.10;41.70
22379;DHT22;11357;49.990;7.370;2023-04-03T16:31:09;12.00;41.40
22379;DHT22;11357;49.990;7.370;2023-04-03T16:33:35;11.90;41.50
22379;DHT22;11357;49.990;7.370;2023-04-03T16:36:03;11.80;41.70
22379;DHT22;11357;49.990;7.370;2023-04-03T16:38:28;11.70;42.60
22379;DHT22;11357;49.990;7.370;2023-04-03T16:40:54;11.60;42.40
22379;DHT22;11357;49.990;7.370;2023-04-03T16:43:22;11.40;42.60
22379;DHT22;11357;49.990;7.370;2023-04-03T16:45:48;11.30;43.00
22379;DHT22;11357;49.990;7.370;2023-04-03T16:48:14;11.10;43.60
22379;DHT22;11357;49.990;7.370;2023-04-03T16:50:39;11.00;43.90
22379;DHT22;11357;49.990;7.370;2023-04-03T16:53:05;11.00;44.30
22379;DHT22;11357;49.990;7.370;2023-04-03T16:55:35;11.00;44.60
22379;DHT22;11357;49.990;7.370;2023-04-03T16:58:00;10.90;44.80
22379;DHT22;11357;49.990;7.370;2023-04-03T17:00:29;10.80;44.90
22379;DHT22;11357;49.990;7.370;2023-04-03T17:02:55;10.60;45.10
22379;DHT22;11357;49.990;7.370;2023-04-03T17:05:20;10.60;45.40
22379;DHT22;11357;49.990;7.370;2023-04-03T17:07:46;10.40;45.20
22379;DHT22;11357;49.990;7.370;2023-04-03T17:10:12;10.20;45.40
22379;DHT22;11357;49.990;7.370;2023-04-03T17:12:38;10.10;45.90
22379;DHT22;11357;49.990;7.370;2023-04-03T17:15:04;10.00;46.10
22379;DHT22;11357;49.990;7.370;2023-04-03T17:17:30;9.90;46.40
22379;DHT22;11357;49.990;7.370;2023-04-03T17:19:56;9.80;46.70
22379;DHT22;11357;49.990;7.370;2023-04-03T17:22:22;9.70;47.00
22379;DHT22;11357;49.990;7.370;2023-04-03T17:24:47;9.60;47.10
22379;DHT22;11357;49.990;7.370;2023-04-03T17:27:13;9.50;47.20
22379;DHT22;11357;49.990;7.370;2023-04-03T17:29:39;9.50;47.20
22379;DHT22;11357;49.990;7.370;2023-04-03T17:32:04;9.40;47.40
22379;DHT22;11357;49.990;7.370;2023-04-03T17:34:30;9.30;47.70
22379;DHT22;11357;49.990;7.370;2023-04-03T17:36:56;9.20;48.00
22379;DHT22;11357;49.990;7.370;2023-04-03T17:39:21;9.20;48.50
22379;DHT22;11357;49.990;7.370;2023-04-03T17:41:47;9.10;48.70
22379;DHT22;11357;49.990;7.370;2023-04-03T17:44:14;9.10;49.10
22379;DHT22;11357;49.990;7.370;2023-04-03T17:46:40;9.00;49.20
22379;DHT22;11357;49.990;7.370;2023-04-03T17:49:05;9.00;49.20
22379;DHT22;11357;49.990;7.370;2023-04-03T17:51:34;8.90;49.30
22379;DHT22;11357;49.990;7.370;2023-04-03T17:54:01;8.90;49.30
22379;DHT22;11357;49.990;7.370;2023-04-03T17:56:26;8.80;49.50
22379;DHT22;11357;49.990;7.370;2023-04-03T17:58:53;8.80;49.50
22379;DHT22;11357;49.990;7.370;2023-04-03T18:01:30;8.70;49.40
22379;DHT22;11357;49.990;7.370;2023-04-03T18:03:58;8.60;49.50
22379;DHT22;11357;49.990;7.370;2023-04-03T18:06:27;8.60;49.60
22379;DHT22;11357;49.990;7.370;2023-04-03T18:09:00;8.50;50.40
22379;DHT22;11357;49.990;7.370;2023-04-03T18:11:28;8.40;49.80
22379;DHT22;11357;49.990;7.370;2023-04-03T18:13:57;8.40;50.00
22379;DHT22;11357;49.990;7.370;2023-04-03T18:16:23;8.30;50.10
22379;DHT22;11357;49.990;7.370;2023-04-03T18:18:49;8.30;50.30
22379;DHT22;11357;49.990;7.370;2023-04-03T18:21:15;8.20;50.50
22379;DHT22;11357;49.990;7.370;2023-04-03T18:23:46;8.20;50.70